createdAt,value
2023-02-28T00:01:14.921Z,31.63
2023-02-28T00:03:43.039Z,31.66
2023-02-28T00:06:11.510Z,31.95
2023-02-28T00:08:40.212Z,31.59
2023-02-28T00:11:10.269Z,31.54
2023-02-28T00:13:41.324Z,31.50
2023-02-28T00:16:12.653Z,31.65
2023-02-28T00:18:40.887Z,31.23
2023-02-28T00:21:09.330Z,31.33
2023-02-28T00:23:37.737Z,31.37
2023-02-28T00:26:06.120Z,31.39
2023-02-28T00:28:35.819Z,31.46
2023-02-28T00:31:09.487Z,31.30
2023-02-28T00:33:38.224Z,31.15
2023-02-28T00:36:08.472Z,31.10
2023-02-28T00:38:40.170Z,31.12
2023-02-28T00:41:08.601Z,31.08
2023-02-28T00:43:38.172Z,31.07
2023-02-28T00:46:06.600Z,31.08
2023-02-28T00:48:35.560Z,31.38
2023-02-28T00:51:03.855Z,31.27
2023-02-28T00:53:34.930Z,31.28
2023-02-28T00:56:03.788Z,31.26
2023-02-28T00:58:36.146Z,30.92
2023-02-28T01:01:04.667Z,30.96
2023-02-28T01:03:33.034Z,30.89
2023-02-28T01:06:01.286Z,30.95
2023-02-28T01:08:29.865Z,30.84
2023-02-28T01:10:58.472Z,30.90
2023-02-28T01:13:26.945Z,31.24
2023-02-28T01:15:57.017Z,30.84
2023-02-28T01:18:33.578Z,30.69
2023-02-28T01:21:09.810Z,30.82
2023-02-28T01:23:37.976Z,30.63
2023-02-28T01:26:08.216Z,30.96
2023-02-28T01:28:36.464Z,30.94
2023-02-28T01:31:05.399Z,31.05
2023-02-28T01:33:33.992Z,30.82
2023-02-28T01:36:16.146Z,31.08
2023-02-28T01:38:44.288Z,30.89
2023-02-28T01:41:26.771Z,31.03
2023-02-28T01:44:07.779Z,31.19
2023-02-28T01:46:36.781Z,31.16
2023-02-28T01:49:16.503Z,31.18
2023-02-28T01:51:52.048Z,31.38
2023-02-28T01:54:28.151Z,31.46
2023-02-28T01:57:16.150Z,31.54
2023-02-28T01:59:47.666Z,31.39
2023-02-28T02:02:21.760Z,31.12
2023-02-28T02:05:02.684Z,30.98
2023-02-28T02:07:33.363Z,30.99
2023-02-28T02:10:04.512Z,30.76
2023-02-28T02:12:51.214Z,30.87
2023-02-28T02:15:59.850Z,30.46
2023-02-28T02:18:43.954Z,30.58
2023-02-28T02:21:50.749Z,30.56
2023-02-28T02:24:37.088Z,30.14
2023-02-28T02:27:43.653Z,30.07
2023-02-28T02:30:15.171Z,30.12
2023-02-28T02:33:04.626Z,30.20
2023-02-28T02:35:41.611Z,30.30
2023-02-28T02:38:18.918Z,30.66
2023-02-28T02:41:02.478Z,30.30
2023-02-28T02:43:40.019Z,30.41
2023-02-28T02:46:25.179Z,30.41
2023-02-28T02:48:53.531Z,30.39
2023-02-28T02:51:22.218Z,30.44
2023-02-28T02:53:55.789Z,30.12
2023-02-28T02:56:27.914Z,29.96
2023-02-28T02:58:58.012Z,30.16
2023-02-28T03:01:30.324Z,30.14
2023-02-28T03:04:02.676Z,29.97
2023-02-28T03:06:31.143Z,29.81
2023-02-28T03:08:59.379Z,29.79
2023-02-28T03:11:27.838Z,29.89
2023-02-28T03:14:11.111Z,29.91
2023-02-28T03:17:03.681Z,29.88
2023-02-28T03:20:08.425Z,29.83
2023-02-28T03:30:41.909Z,29.61
2023-02-28T03:33:17.554Z,29.55
2023-02-28T03:35:57.241Z,29.23
2023-02-28T03:39:06.707Z,29.37
2023-02-28T03:42:01.026Z,29.33
2023-02-28T03:44:39.066Z,29.28
2023-02-28T03:47:19.110Z,29.41
2023-02-28T03:49:52.144Z,29.51
2023-02-28T03:52:21.141Z,29.48
2023-02-28T03:54:51.449Z,29.83
2023-02-28T03:57:29.228Z,30.06
2023-02-28T04:00:20.697Z,30.06
2023-02-28T04:02:53.809Z,29.96
2023-02-28T04:05:24.559Z,30.12
2023-02-28T04:07:55.082Z,30.00
2023-02-28T04:10:23.321Z,30.35
2023-02-28T04:12:52.321Z,30.16
2023-02-28T04:15:23.946Z,30.09
2023-02-28T04:17:53.287Z,29.96
2023-02-28T04:20:22.504Z,29.99
2023-02-28T04:22:50.830Z,29.87
2023-02-28T04:25:19.143Z,29.99
2023-02-28T04:27:49.212Z,29.91
2023-02-28T04:30:17.874Z,29.80
2023-02-28T04:32:46.216Z,29.81
2023-02-28T04:35:14.602Z,29.96
2023-02-28T04:37:42.994Z,29.90
2023-02-28T04:40:12.174Z,29.80
2023-02-28T04:42:40.458Z,29.64
2023-02-28T04:45:11.345Z,29.76
2023-02-28T04:47:40.081Z,29.86
2023-02-28T04:50:09.812Z,29.93
2023-02-28T04:52:39.308Z,29.72
2023-02-28T04:55:08.810Z,29.72
2023-02-28T04:57:38.254Z,29.88
2023-02-28T05:00:12.748Z,29.73
2023-02-28T05:02:41.523Z,29.72
2023-02-28T05:05:09.773Z,29.76
2023-02-28T05:07:39.148Z,29.78
2023-02-28T05:10:07.994Z,29.58
2023-02-28T05:12:36.473Z,29.57
2023-02-28T05:15:06.025Z,29.65
2023-02-28T05:17:34.504Z,29.66
2023-02-28T05:20:15.029Z,29.63
2023-02-28T05:22:44.088Z,29.62
2023-02-28T05:25:17.665Z,29.39
2023-02-28T05:27:46.214Z,29.36
2023-02-28T05:30:15.679Z,29.48
2023-02-28T05:32:45.121Z,29.30
2023-02-28T05:35:13.726Z,29.40
2023-02-28T05:37:42.700Z,29.55
2023-02-28T05:40:11.738Z,29.65
2023-02-28T05:42:40.706Z,29.53
2023-02-28T05:45:09.379Z,29.58
2023-02-28T05:47:37.760Z,29.67
2023-02-28T05:50:07.145Z,29.73
2023-02-28T05:52:35.678Z,29.72
2023-02-28T05:55:04.954Z,29.63
2023-02-28T05:57:34.576Z,29.81
2023-02-28T06:00:04.436Z,29.84
2023-02-28T06:02:41.624Z,29.91
2023-02-28T06:05:18.984Z,29.70
2023-02-28T06:07:47.236Z,29.73
2023-02-28T06:10:16.837Z,29.65
2023-02-28T06:12:45.522Z,29.55
2023-02-28T07:28:56.342Z,31.68
2023-02-28T07:31:25.743Z,30.32
2023-02-28T07:33:55.173Z,29.96
2023-02-28T07:36:23.372Z,29.80
2023-02-28T07:38:51.720Z,29.57
2023-02-28T07:41:22.254Z,29.63
2023-02-28T07:43:50.632Z,29.56
2023-02-28T07:46:22.463Z,29.55
2023-02-28T07:48:52.076Z,29.38
2023-02-28T07:51:20.457Z,29.45
2023-02-28T07:53:53.603Z,29.38
2023-02-28T07:56:22.089Z,29.55
2023-02-28T07:58:50.520Z,29.73
2023-02-28T08:01:20.752Z,29.76
2023-02-28T08:03:49.138Z,29.31
2023-02-28T08:06:24.621Z,29.23
2023-02-28T08:08:59.604Z,29.16
2023-02-28T08:11:28.765Z,29.00
2023-02-28T08:13:57.194Z,29.06
2023-02-28T08:16:27.605Z,28.88
2023-02-28T08:18:56.098Z,28.80
2023-02-28T08:21:24.197Z,28.86
2023-02-28T08:23:53.242Z,28.80
2023-02-28T08:26:21.784Z,28.58
2023-02-28T08:28:51.165Z,28.39
2023-02-28T08:31:19.951Z,28.18
2023-02-28T08:33:52.209Z,28.25
2023-02-28T08:36:21.002Z,28.03
2023-02-28T08:38:49.173Z,27.96
2023-02-28T08:41:17.286Z,28.01
2023-02-28T08:43:45.803Z,28.17
2023-02-28T08:46:15.006Z,27.79
2023-02-28T08:48:43.417Z,27.78
2023-02-28T08:51:19.774Z,27.78
2023-02-28T08:53:50.592Z,28.01
2023-02-28T08:56:19.221Z,27.78
2023-02-28T08:58:48.494Z,27.52
2023-02-28T09:01:18.691Z,27.36
2023-02-28T09:03:48.554Z,27.21
2023-02-28T09:06:17.866Z,27.12
2023-02-28T09:08:46.219Z,27.13
2023-02-28T09:11:14.714Z,27.02
2023-02-28T09:13:43.827Z,26.87
2023-02-28T09:16:13.953Z,26.80
2023-02-28T09:18:43.686Z,26.70
2023-02-28T09:21:16.535Z,26.53
2023-02-28T09:23:45.700Z,26.47
2023-02-28T09:26:16.529Z,26.37
2023-02-28T09:28:45.362Z,26.06
2023-02-28T09:31:15.530Z,26.03
2023-02-28T09:33:43.959Z,25.90
2023-02-28T09:36:14.904Z,25.74
2023-02-28T09:38:44.846Z,25.64
2023-02-28T09:41:29.239Z,25.61
2023-02-28T09:43:58.369Z,25.65
2023-02-28T09:46:29.799Z,25.54
2023-02-28T09:48:58.464Z,25.32
2023-02-28T09:51:54.428Z,25.22
2023-02-28T09:54:29.792Z,25.11
2023-02-28T09:57:10.974Z,24.83
2023-02-28T10:00:01.779Z,24.78
2023-02-28T10:02:36.212Z,24.72
2023-02-28T10:05:18.392Z,24.58
2023-02-28T10:08:09.499Z,24.52
2023-02-28T10:10:46.396Z,24.50
2023-02-28T10:13:23.378Z,24.34
2023-02-28T10:15:54.809Z,24.32
2023-02-28T10:18:28.827Z,24.37
2023-02-28T10:20:57.572Z,24.34
2023-02-28T10:23:32.979Z,24.29
2023-02-28T10:26:17.082Z,24.22
2023-02-28T10:28:45.897Z,24.22
2023-02-28T10:31:19.548Z,24.23
2023-02-28T10:33:47.817Z,24.40
2023-02-28T10:36:19.082Z,24.46
2023-02-28T10:38:47.768Z,24.68
2023-02-28T10:41:28.722Z,24.57
2023-02-28T10:44:18.987Z,24.48
2023-02-28T10:46:47.123Z,24.51
2023-02-28T10:49:28.336Z,24.37
2023-02-28T10:51:58.394Z,24.37
2023-02-28T10:54:38.920Z,24.30
2023-02-28T10:57:22.021Z,24.33
2023-02-28T10:59:55.937Z,24.32
2023-02-28T11:02:30.330Z,24.24
2023-02-28T11:04:58.496Z,24.32
2023-02-28T11:07:27.820Z,24.22
2023-02-28T11:09:59.049Z,24.21
2023-02-28T11:12:47.287Z,24.38
2023-02-28T11:15:23.199Z,24.24
2023-02-28T11:18:14.698Z,24.03
2023-02-28T11:20:47.565Z,23.98
2023-02-28T11:23:16.399Z,23.78
2023-02-28T11:25:51.826Z,23.86
2023-02-28T11:28:37.361Z,23.83
2023-02-28T11:31:06.962Z,23.99
2023-02-28T11:33:46.346Z,24.05
2023-02-28T11:36:20.128Z,24.21
2023-02-28T11:38:50.781Z,24.30
2023-02-28T11:41:19.088Z,24.37
2023-02-28T11:44:00.396Z,24.32
2023-02-28T11:46:38.606Z,24.22
2023-02-28T11:49:26.350Z,24.38
2023-02-28T11:52:14.618Z,24.20
2023-02-28T11:54:52.815Z,24.19
2023-02-28T11:57:46.075Z,24.03
2023-02-28T12:00:37.613Z,24.00
2023-02-28T12:03:17.002Z,24.33
2023-02-28T12:05:55.949Z,24.33
2023-02-28T12:08:43.278Z,24.25
2023-02-28T12:12:16.352Z,24.17
2023-02-28T12:15:06.763Z,24.04
2023-02-28T12:17:43.847Z,24.18
2023-02-28T12:20:27.018Z,24.13
2023-02-28T12:24:07.786Z,24.27
2023-02-28T12:26:45.758Z,24.40
2023-02-28T12:29:16.502Z,24.35
2023-02-28T12:32:13.067Z,24.48
2023-02-28T12:34:48.953Z,24.35
2023-02-28T12:37:42.252Z,24.33
2023-02-28T12:40:13.850Z,24.30
2023-02-28T12:42:47.246Z,24.16
2023-02-28T12:45:22.298Z,24.12
2023-02-28T12:47:58.925Z,24.18
2023-02-28T12:50:27.310Z,24.24
2023-02-28T12:53:03.541Z,24.04
2023-02-28T12:55:35.269Z,24.22
2023-02-28T12:58:46.108Z,24.43
2023-02-28T13:01:33.489Z,24.55
2023-02-28T13:04:17.464Z,24.94
2023-02-28T13:07:15.744Z,24.87
2023-02-28T13:09:55.903Z,25.26
2023-02-28T13:12:27.997Z,25.28
2023-02-28T13:15:17.619Z,25.40
2023-02-28T13:17:46.434Z,25.32
2023-02-28T13:20:40.009Z,25.21
2023-02-28T13:23:52.634Z,25.45
2023-02-28T13:26:21.247Z,25.48
2023-02-28T13:28:49.697Z,25.32
2023-02-28T13:31:19.639Z,25.48
2023-02-28T13:33:50.615Z,25.45
2023-02-28T13:36:18.983Z,25.40
2023-02-28T13:38:52.771Z,25.43
2023-02-28T13:41:30.545Z,25.21
2023-02-28T13:44:13.701Z,25.32
2023-02-28T13:46:49.591Z,25.52
2023-02-28T13:49:24.241Z,25.64
2023-02-28T13:52:09.864Z,25.87
2023-02-28T13:54:49.447Z,25.93
2023-02-28T13:57:43.842Z,25.99
2023-02-28T14:00:19.238Z,26.03
2023-02-28T14:03:10.057Z,26.02
2023-02-28T14:05:39.899Z,25.92
2023-02-28T14:08:21.971Z,25.88
2023-02-28T14:10:52.478Z,25.77
2023-02-28T14:13:46.075Z,25.79
2023-02-28T14:16:15.887Z,25.69
2023-02-28T14:19:15.221Z,25.91
2023-02-28T14:22:25.028Z,25.86
2023-02-28T14:25:05.016Z,25.75
2023-02-28T14:27:38.761Z,25.82
2023-02-28T14:30:39.547Z,25.86
2023-02-28T14:33:28.320Z,25.93
2023-02-28T14:36:15.193Z,25.87
2023-02-28T14:38:51.764Z,25.86
2023-02-28T14:41:28.558Z,25.91
2023-02-28T14:43:58.785Z,25.94
2023-02-28T14:46:31.865Z,26.00
2023-02-28T14:49:00.707Z,26.04
2023-02-28T14:51:29.419Z,26.10
2023-02-28T14:53:59.551Z,26.20
2023-02-28T14:56:32.250Z,26.38
2023-02-28T14:59:00.319Z,26.30
2023-02-28T15:01:29.289Z,26.36
2023-02-28T15:04:05.780Z,26.35
2023-02-28T15:06:34.297Z,26.56
2023-02-28T15:09:15.987Z,26.56
2023-02-28T15:11:47.293Z,26.67
2023-02-28T15:14:21.073Z,26.76
2023-02-28T15:17:03.316Z,26.71
2023-02-28T15:19:35.723Z,26.77
2023-02-28T15:22:06.649Z,26.90
2023-02-28T15:24:51.929Z,26.92
2023-02-28T15:27:23.132Z,27.04
2023-02-28T15:29:54.920Z,27.10
2023-02-28T15:32:30.065Z,27.25
2023-02-28T15:34:59.448Z,27.22
2023-02-28T15:37:34.316Z,27.26
2023-02-28T15:40:15.172Z,27.52
2023-02-28T15:42:46.446Z,27.61
2023-02-28T15:45:48.097Z,27.79
2023-02-28T15:48:21.036Z,27.72
2023-02-28T15:50:59.835Z,27.63
2023-02-28T15:54:09.013Z,27.80
2023-02-28T15:56:44.168Z,27.80
2023-02-28T15:59:21.284Z,27.91
2023-02-28T16:02:11.795Z,27.86
2023-02-28T16:05:00.090Z,27.88
2023-02-28T16:07:28.686Z,27.95
2023-02-28T16:09:56.797Z,28.10
2023-02-28T16:12:29.899Z,28.12
2023-02-28T16:15:03.958Z,28.06
2023-02-28T16:17:34.976Z,28.20
2023-02-28T16:20:12.737Z,28.19
2023-02-28T16:22:43.069Z,28.40
2023-02-28T16:25:19.134Z,28.28
2023-02-28T16:27:51.179Z,28.47
2023-02-28T16:30:23.132Z,28.64
2023-02-28T16:32:51.702Z,28.75
2023-02-28T16:35:20.074Z,28.74
2023-02-28T16:37:48.439Z,28.87
2023-02-28T16:40:18.319Z,28.96
2023-02-28T16:42:47.247Z,29.04
2023-02-28T16:45:20.466Z,29.04
2023-02-28T16:47:48.653Z,29.05
2023-02-28T16:50:21.468Z,29.16
2023-02-28T16:52:50.812Z,29.29
2023-02-28T16:55:19.739Z,29.25
2023-02-28T16:57:51.557Z,29.53
2023-02-28T17:00:20.558Z,29.54
2023-02-28T17:02:49.218Z,29.61
2023-02-28T17:05:19.802Z,29.66
2023-02-28T17:07:48.756Z,29.73
2023-02-28T17:10:18.118Z,29.72
2023-02-28T17:12:49.580Z,29.90
2023-02-28T17:15:20.725Z,30.00
2023-02-28T17:17:50.081Z,29.66
2023-02-28T17:20:23.467Z,30.14
2023-02-28T17:22:53.310Z,30.08
2023-02-28T17:25:21.866Z,30.27
2023-02-28T17:27:50.548Z,30.25
2023-02-28T17:30:24.309Z,30.13
2023-02-28T17:32:52.964Z,30.35
2023-02-28T17:35:21.258Z,30.34
2023-02-28T17:37:49.938Z,30.38
2023-02-28T17:46:51.604Z,30.41
2023-02-28T17:49:18.771Z,30.36
2023-02-28T17:51:45.988Z,30.57
2023-02-28T17:54:14.363Z,30.71
2023-02-28T17:56:43.605Z,30.57
2023-02-28T17:59:13.776Z,30.67
2023-02-28T18:01:40.827Z,30.63
2023-02-28T18:04:08.375Z,30.78
2023-02-28T18:06:46.753Z,31.00
2023-02-28T18:09:14.901Z,31.24
2023-02-28T18:11:41.925Z,31.28
2023-02-28T18:14:09.379Z,31.24
2023-02-28T18:16:36.271Z,31.52
2023-02-28T18:19:03.126Z,31.45
2023-02-28T18:21:30.340Z,31.47
2023-02-28T18:23:58.243Z,31.48
2023-02-28T18:26:25.100Z,31.49
2023-02-28T18:28:55.105Z,31.59
2023-02-28T18:31:25.141Z,31.55
2023-02-28T18:33:52.776Z,31.63
2023-02-28T18:36:20.481Z,31.69
2023-02-28T18:38:50.056Z,31.92
2023-02-28T18:41:21.042Z,31.72
2023-02-28T18:43:47.941Z,31.67
2023-02-28T18:46:16.546Z,31.81
2023-02-28T18:48:43.402Z,31.78
2023-02-28T18:51:29.114Z,31.86
2023-02-28T18:53:56.617Z,31.83
2023-02-28T18:56:24.423Z,31.78
2023-02-28T18:58:52.697Z,31.92
2023-02-28T19:01:29.362Z,31.80
2023-02-28T19:03:56.417Z,31.91
2023-02-28T19:06:24.107Z,31.71
2023-02-28T19:08:57.792Z,31.96
2023-02-28T19:11:25.005Z,32.00
2023-02-28T19:21:53.955Z,31.99
2023-02-28T19:24:22.576Z,32.07
2023-02-28T19:26:49.485Z,31.84
2023-02-28T19:29:16.430Z,31.86
2023-02-28T19:31:43.730Z,31.72
2023-02-28T19:34:10.841Z,31.78
2023-02-28T19:36:38.348Z,31.91
2023-02-28T19:39:05.758Z,31.89
2023-02-28T19:41:32.876Z,31.88
2023-02-28T19:43:59.764Z,31.88
2023-02-28T19:47:16.065Z,33.93
2023-02-28T19:49:44.596Z,32.40
2023-02-28T19:52:15.092Z,32.11
2023-02-28T19:54:44.186Z,32.24
2023-02-28T19:57:12.851Z,32.48
2023-02-28T19:59:44.821Z,32.60
2023-02-28T20:02:15.155Z,32.40
2023-02-28T20:04:47.572Z,32.23
2023-02-28T20:07:16.981Z,32.26
2023-02-28T20:09:45.921Z,32.28
2023-02-28T20:12:23.647Z,32.42
2023-02-28T20:14:56.177Z,32.17
2023-02-28T20:17:30.605Z,32.32
2023-02-28T20:19:58.792Z,32.35
2023-02-28T20:22:27.077Z,32.22
2023-02-28T20:24:55.334Z,32.42
2023-02-28T20:27:23.834Z,32.29
2023-02-28T20:29:53.415Z,32.33
2023-02-28T20:32:21.952Z,32.10
2023-02-28T20:34:54.915Z,32.39
2023-02-28T20:37:23.601Z,32.41
2023-02-28T20:39:53.258Z,32.34
2023-02-28T20:42:21.993Z,32.27
2023-02-28T20:44:52.176Z,32.22
2023-02-28T20:47:20.924Z,32.50
2023-02-28T20:49:49.304Z,32.62
2023-02-28T20:52:44.907Z,32.53
2023-02-28T20:55:13.154Z,32.33
2023-02-28T20:57:41.301Z,32.39
2023-02-28T21:00:15.724Z,32.00
2023-02-28T21:02:47.009Z,32.30
2023-02-28T21:05:15.634Z,32.26
2023-02-28T21:07:43.892Z,32.30
2023-02-28T21:10:12.382Z,32.13
2023-02-28T21:12:41.130Z,32.16
2023-02-28T21:15:09.907Z,32.08
2023-02-28T21:17:38.472Z,32.02
2023-02-28T21:20:07.339Z,31.84
2023-02-28T21:22:37.157Z,31.80
2023-02-28T21:25:05.935Z,32.08
2023-02-28T21:27:35.145Z,31.89
2023-02-28T21:30:05.719Z,31.92
2023-02-28T21:32:33.987Z,32.03
2023-02-28T21:35:03.984Z,31.96
2023-02-28T21:37:32.408Z,31.96
2023-02-28T21:40:00.597Z,32.13
2023-02-28T21:42:29.221Z,32.03
2023-02-28T21:45:01.759Z,32.12
2023-02-28T21:47:30.190Z,32.15
2023-02-28T21:49:58.364Z,32.12
2023-02-28T21:52:26.524Z,32.10
2023-02-28T21:54:54.998Z,32.11
2023-02-28T21:57:31.987Z,31.90
2023-02-28T22:00:02.119Z,32.06
